Terminal Aerodrome Forecast
Issued by NWS Tampa Bay Area, FL

Home | Current Version | Previous Version | Text Only | Print | Product List | Glossary On
Versions: 1 2 3 4 5 6 7 8 9 10 11 12 13 14 15
754
FTUS42 KTBW 061133
TAFFMY
TAF
KFMY 061133Z 0612/0712 01007KT P6SM SKC
     FM061500 34012KT P6SM SKC
     FM061900 31014G22KT P6SM SCT050
     FM070100 30013KT P6SM SKC=

USA.gov is the U.S. government's official web portal to all federal, state and local government web resources and services.